Time;durP1;ratioP1;P1;durP2;ratioP2;P2;SDS_P1;SDS_P2;PMS_P1;PMS_P2;Temp;Humidity;BMP_temperature;BMP_pressure;BME280_temperature;BME280_humidity;BME280_pressure;Samples;Min_cycle;Max_cycle;Signal;HPM_P1;HPM_P2
2021/09/23 00:07:54;;;;;;;5.00;3.92;;;18.80;66.90;;;;;;20823271;28;20120;-58
2021/09/23 00:17:58;;;;;;;5.72;3.70;;;18.70;66.80;;;;;;20747128;28;20022;-58
2021/09/23 00:28:01;;;;;;;4.18;3.50;;;18.70;66.90;;;;;;20746579;28;20018;-56
2021/09/23 00:38:02;;;;;;;4.22;3.13;;;18.70;66.90;;;;;;20746595;28;20419;-55
2021/09/23 00:48:03;;;;;;;4.60;3.78;;;18.70;66.80;;;;;;20748104;28;20026;-52
2021/09/23 00:58:04;;;;;;;4.78;4.07;;;18.70;66.70;;;;;;20743535;28;20033;-56
2021/09/23 01:08:04;;;;;;;5.78;3.67;;;18.70;66.80;;;;;;20742607;28;20399;-57
2021/09/23 01:18:05;;;;;;;5.80;3.38;;;18.70;67.00;;;;;;20741997;28;20495;-56
2021/09/23 01:28:06;;;;;;;5.25;3.65;;;18.60;66.70;;;;;;20740779;28;20080;-57
2021/09/23 01:38:06;;;;;;;8.13;3.67;;;18.70;66.70;;;;;;20740983;28;20034;-58
2021/09/23 01:48:07;;;;;;;7.32;3.47;;;18.70;66.00;;;;;;20742612;28;20052;-57
2021/09/23 01:58:07;;;;;;;5.30;2.97;;;19.00;63.10;;;;;;20785895;28;20087;-58
2021/09/23 02:08:08;;;;;;;6.10;2.92;;;19.00;62.70;;;;;;20788779;28;20512;-58
2021/09/23 02:18:09;;;;;;;7.53;3.03;;;19.00;62.20;;;;;;20780636;28;20488;-57
2021/09/23 02:28:09;;;;;;;6.32;3.50;;;19.00;61.80;;;;;;20785681;28;20042;-57
2021/09/23 02:38:10;;;;;;;6.22;3.25;;;19.00;61.30;;;;;;20792755;28;20057;-58
2021/09/23 02:48:11;;;;;;;4.43;3.13;;;19.00;60.90;;;;;;20790230;28;20041;-58
2021/09/23 02:58:11;;;;;;;6.20;3.80;;;19.00;60.50;;;;;;20762600;28;20044;-56
2021/09/23 03:08:12;;;;;;;3.60;2.65;;;19.00;60.40;;;;;;20786043;23;20470;-63
2021/09/23 03:18:12;;;;;;;5.32;3.17;;;19.00;60.10;;;;;;20766560;28;20057;-63
2021/09/23 03:28:13;;;;;;;6.55;3.70;;;19.00;60.00;;;;;;20765073;28;20042;-63
2021/09/23 03:38:14;;;;;;;6.68;3.90;;;19.10;59.50;;;;;;20750417;28;20022;-63
2021/09/23 03:48:16;;;;;;;4.50;3.30;;;19.10;59.70;;;;;;20765288;28;20034;-62
2021/09/23 03:58:17;;;;;;;11.73;4.68;;;19.10;59.10;;;;;;20744304;28;20029;-63
2021/09/23 04:08:17;;;;;;;6.25;3.45;;;19.10;59.30;;;;;;20746937;28;20037;-65
2021/09/23 04:18:18;;;;;;;4.60;3.33;;;19.10;59.30;;;;;;20755484;28;20524;-65
2021/09/23 04:28:19;;;;;;;5.38;3.67;;;19.10;59.00;;;;;;20744408;28;20034;-64
2021/09/23 04:38:19;;;;;;;6.32;4.05;;;19.10;58.70;;;;;;20737952;28;20104;-64
2021/09/23 04:48:20;;;;;;;4.40;3.67;;;19.10;58.90;;;;;;20756500;28;20042;-64
2021/09/23 04:58:20;;;;;;;6.10;3.78;;;19.10;58.30;;;;;;20740032;28;20018;-62
2021/09/23 05:08:23;;;;;;;5.37;3.30;;;19.10;58.30;;;;;;20741409;28;20117;-63
2021/09/23 05:18:23;;;;;;;6.50;4.47;;;19.10;58.20;;;;;;20737599;28;20468;-63
2021/09/23 05:28:24;;;;;;;6.07;3.63;;;19.10;58.00;;;;;;20748308;28;20109;-64
2021/09/23 05:38:24;;;;;;;6.85;3.85;;;19.10;57.80;;;;;;20748966;28;20473;-64
2021/09/23 05:48:27;;;;;;;5.47;3.85;;;19.10;57.30;;;;;;20734906;28;20037;-63
2021/09/23 05:58:27;;;;;;;10.57;3.67;;;19.30;55.60;;;;;;20751470;28;20452;-65
2021/09/23 06:08:28;;;;;;;16.27;4.07;;;19.60;55.20;;;;;;20757371;28;20034;-64
2021/09/23 06:18:28;;;;;;;25.67;5.82;;;19.90;54.90;;;;;;20742763;28;20034;-62
2021/09/23 06:28:30;;;;;;;18.73;4.88;;;20.40;54.40;;;;;;20693395;28;20180;-65
2021/09/23 06:38:31;;;;;;;13.18;4.93;;;20.80;54.30;;;;;;20715731;28;20050;-63
2021/09/23 06:48:32;;;;;;;13.30;4.45;;;20.40;56.20;;;;;;20675798;28;20628;-61
2021/09/23 06:58:32;;;;;;;16.13;5.03;;;20.30;57.40;;;;;;20741139;28;20065;-63
2021/09/23 07:08:33;;;;;;;12.15;4.32;;;20.30;57.90;;;;;;20741737;28;20129;-62
2021/09/23 07:18:33;;;;;;;11.60;4.05;;;20.20;58.40;;;;;;20739961;28;20130;-63
2021/09/23 07:28:34;;;;;;;12.48;4.10;;;20.10;58.80;;;;;;20744423;28;20030;-57
2021/09/23 07:38:35;;;;;;;8.43;3.17;;;20.10;59.00;;;;;;20745507;28;20038;-62
2021/09/23 07:48:36;;;;;;;4.40;2.85;;;20.00;59.20;;;;;;20743172;28;20034;-63
2021/09/23 07:58:36;;;;;;;8.98;4.20;;;20.10;59.60;;;;;;20743589;28;20113;-60
2021/09/23 08:08:37;;;;;;;11.23;3.38;;;20.10;59.70;;;;;;20743601;28;20113;-62
2021/09/23 08:18:38;;;;;;;7.87;2.73;;;20.10;59.60;;;;;;20744397;28;20030;-59
2021/09/23 08:28:38;;;;;;;12.63;3.45;;;20.20;59.70;;;;;;20743193;28;20469;-61
2021/09/23 08:38:39;;;;;;;6.33;2.83;;;20.20;60.10;;;;;;20742725;28;20038;-61
2021/09/23 08:48:40;;;;;;;34.28;4.72;;;20.20;59.70;;;;;;20742302;28;21096;-61
2021/09/23 08:58:40;;;;;;;18.00;3.78;;;20.20;59.80;;;;;;20741691;28;20462;-62
2021/09/23 09:08:42;;;;;;;20.67;3.65;;;20.10;60.00;;;;;;20738841;28;20548;-62
2021/09/23 09:18:45;;;;;;;19.70;3.72;;;20.20;60.00;;;;;;20739933;28;20492;-63
2021/09/23 09:28:48;;;;;;;12.98;3.00;;;20.10;60.30;;;;;;20738380;28;20025;-60
2021/09/23 09:38:53;;;;;;;13.63;3.47;;;20.10;60.30;;;;;;20734908;28;20054;-63
2021/09/23 09:48:55;;;;;;;12.13;3.30;;;20.10;60.30;;;;;;20735913;28;20022;-62
2021/09/23 09:59:13;;;;;;;11.50;3.00;;;20.20;60.00;;;;;;20736299;28;20030;-63
2021/09/23 10:09:16;;;;;;;28.27;4.27;;;20.20;60.30;;;;;;20734144;28;20030;-63
2021/09/23 10:19:18;;;;;;;16.45;3.90;;;20.20;60.80;;;;;;20744835;28;20772;-62
2021/09/23 10:29:18;;;;;;;24.15;5.32;;;20.20;60.80;;;;;;20737659;28;20034;-64
2021/09/23 10:39:20;;;;;;;12.95;3.30;;;20.20;60.90;;;;;;20722714;28;20037;-63
2021/09/23 10:49:20;;;;;;;8.00;5.00;;;20.30;60.50;;;;;;20735049;28;20057;-63
2021/09/23 10:59:25;;;;;;;12.57;3.63;;;20.30;60.90;;;;;;20734948;28;20058;-62
2021/09/23 11:09:27;;;;;;;10.65;3.97;;;20.10;61.20;;;;;;20734887;28;20500;-62
2021/09/23 11:19:28;;;;;;;11.43;3.20;;;20.10;59.60;;;;;;20734248;28;20048;-62
2021/09/23 11:29:28;;;;;;;10.65;3.53;;;20.10;59.60;;;;;;20731218;28;20026;-62
2021/09/23 11:39:29;;;;;;;6.30;3.10;;;20.10;60.50;;;;;;20734957;28;20038;-62
2021/09/23 11:49:30;;;;;;;6.50;2.72;;;20.20;60.00;;;;;;20747472;28;20026;-63
2021/09/23 11:59:31;;;;;;;7.07;3.17;;;20.30;59.60;;;;;;20747307;28;20373;-63
2021/09/23 12:09:36;;;;;;;6.03;2.10;;;20.30;59.40;;;;;;20745838;28;20056;-62
2021/09/23 12:19:37;;;;;;;6.60;3.33;;;20.30;59.10;;;;;;20743643;28;20060;-63
2021/09/23 12:29:38;;;;;;;4.73;2.37;;;20.40;59.30;;;;;;20743460;28;20473;-62
2021/09/23 12:39:44;;;;;;;5.28;3.05;;;20.30;59.00;;;;;;20742974;28;20042;-61
2021/09/23 12:49:50;;;;;;;4.47;2.25;;;20.40;59.30;;;;;;20745290;23;20053;-61
2021/09/23 13:00:12;;;;;;;4.10;2.22;;;20.40;59.30;;;;;;20719038;28;20080;-61
2021/09/23 13:10:15;;;;;;;3.80;2.38;;;20.30;59.00;;;;;;20673916;28;20044;-65
2021/09/23 13:20:15;;;;;;;8.63;2.30;;;20.20;59.00;;;;;;20669111;28;20033;-61
2021/09/23 13:30:16;;;;;;;3.20;1.75;;;20.20;59.00;;;;;;20662283;28;20030;-61
2021/09/23 13:40:17;;;;;;;4.53;2.67;;;20.20;58.30;;;;;;20701712;28;20411;-62
2021/09/23 13:50:17;;;;;;;5.20;3.00;;;20.10;58.90;;;;;;20738191;28;20076;-61
2021/09/23 14:00:19;;;;;;;5.43;2.63;;;20.10;58.50;;;;;;20691896;28;20101;-61
2021/09/23 14:10:19;;;;;;;5.95;2.75;;;20.10;58.40;;;;;;20656545;28;20468;-61
2021/09/23 14:20:20;;;;;;;10.07;2.72;;;20.10;58.40;;;;;;20655997;28;20062;-61
2021/09/23 14:30:20;;;;;;;3.95;2.65;;;20.00;58.30;;;;;;20655786;28;20042;-61
2021/09/23 14:40:26;;;;;;;4.70;2.50;;;20.00;58.40;;;;;;20656042;28;20403;-61
2021/09/23 14:50:27;;;;;;;3.97;2.10;;;20.00;58.40;;;;;;20655132;28;20093;-61
2021/09/23 15:00:28;;;;;;;10.25;2.40;;;20.00;58.20;;;;;;20654933;28;20027;-62
2021/09/23 15:10:28;;;;;;;5.70;2.00;;;20.00;58.30;;;;;;20655623;28;20404;-61
2021/09/23 15:20:29;;;;;;;5.93;2.20;;;19.90;59.20;;;;;;20683755;28;20034;-61
2021/09/23 15:30:33;;;;;;;3.58;2.50;;;19.90;60.40;;;;;;20668598;28;20026;-60
2021/09/23 15:40:36;;;;;;;3.95;2.10;;;19.90;60.70;;;;;;20737200;28;20069;-60
2021/09/23 15:50:37;;;;;;;4.28;2.20;;;19.90;60.70;;;;;;20747831;28;20037;-59
2021/09/23 16:00:39;;;;;;;5.63;2.35;;;19.90;61.30;;;;;;20738875;28;20029;-60
2021/09/23 16:10:42;;;;;;;6.05;2.45;;;19.90;61.40;;;;;;20703354;28;20052;-59
2021/09/23 16:20:45;;;;;;;8.35;2.63;;;19.90;61.40;;;;;;20740145;28;20029;-59
2021/09/23 16:30:45;;;;;;;3.85;1.60;;;19.80;61.00;;;;;;20705363;28;20030;-60
2021/09/23 16:40:46;;;;;;;5.68;2.97;;;19.80;60.90;;;;;;20709222;28;20476;-59
2021/09/23 16:50:46;;;;;;;4.23;3.30;;;19.80;62.00;;;;;;20708688;28;20030;-57
2021/09/23 17:00:47;;;;;;;5.68;3.40;;;19.80;61.90;;;;;;20710229;28;20461;-60
2021/09/23 17:10:47;;;;;;;5.05;2.33;;;19.80;61.60;;;;;;20711351;28;20568;-59
2021/09/23 17:20:48;;;;;;;6.53;2.20;;;19.80;61.70;;;;;;20732537;28;20046;-60
2021/09/23 17:30:49;;;;;;;5.90;2.67;;;19.80;61.40;;;;;;20687802;28;20034;-60
2021/09/23 17:40:49;;;;;;;2.20;1.90;;;19.70;62.10;;;;;;20707323;28;20116;-60
2021/09/23 17:50:52;;;;;;;4.47;2.53;;;19.70;61.60;;;;;;20714659;28;20037;-60
2021/09/23 18:00:52;;;;;;;3.13;1.48;;;19.70;61.70;;;;;;20704148;28;20038;-60
2021/09/23 18:10:53;;;;;;;5.72;2.03;;;20.00;58.60;;;;;;20696027;28;20025;-60
2021/09/23 18:20:54;;;;;;;3.50;2.10;;;20.00;58.20;;;;;;20689386;28;20042;-60
2021/09/23 18:30:56;;;;;;;8.43;1.98;;;20.00;58.10;;;;;;20678549;28;20405;-60
2021/09/23 18:40:57;;;;;;;10.07;1.75;;;20.00;58.00;;;;;;20726663;28;20075;-59
2021/09/23 18:50:58;;;;;;;4.78;2.17;;;19.80;62.20;;;;;;20742396;28;20482;-59
2021/09/23 19:00:59;;;;;;;9.10;2.10;;;19.70;63.00;;;;;;20670653;28;20019;-59
2021/09/23 19:10:59;;;;;;;6.22;1.85;;;19.60;63.50;;;;;;20670112;28;20021;-59
2021/09/23 19:21:00;;;;;;;3.00;2.07;;;19.50;64.50;;;;;;20669267;28;20390;-60
2021/09/23 19:31:00;;;;;;;6.38;2.13;;;19.50;65.00;;;;;;20671375;28;20479;-60
2021/09/23 19:41:01;;;;;;;5.65;1.88;;;19.40;65.10;;;;;;20667712;28;20030;-60
2021/09/23 19:51:03;;;;;;;5.17;2.00;;;19.40;64.40;;;;;;20666770;28;20034;-56
2021/09/23 20:01:03;;;;;;;4.57;1.90;;;19.40;65.60;;;;;;20678751;28;20041;-57
2021/09/23 20:11:04;;;;;;;7.78;2.20;;;19.30;65.10;;;;;;20730993;28;20076;-55
2021/09/23 20:21:05;;;;;;;12.02;2.45;;;19.30;66.20;;;;;;20744595;28;20034;-59
2021/09/23 20:31:05;;;;;;;7.97;2.30;;;19.30;66.80;;;;;;20739856;28;20030;-57
2021/09/23 20:41:06;;;;;;;8.00;2.08;;;19.30;67.20;;;;;;20676316;28;20033;-54
2021/09/23 20:51:07;;;;;;;7.38;2.28;;;19.30;66.70;;;;;;20662379;28;20037;-58
2021/09/23 21:01:07;;;;;;;9.20;3.00;;;19.20;67.00;;;;;;20698691;28;20448;-60
2021/09/23 21:11:08;;;;;;;2.00;1.10;;;19.20;67.00;;;;;;20717302;28;20479;-60
2021/09/23 21:21:08;;;;;;;8.45;2.15;;;19.20;68.40;;;;;;20697900;28;20478;-58
2021/09/23 21:31:09;;;;;;;4.97;1.73;;;19.20;68.30;;;;;;20700325;28;20178;-60
2021/09/23 21:41:10;;;;;;;2.17;1.17;;;19.10;67.60;;;;;;20704229;28;20038;-59
2021/09/23 21:51:11;;;;;;;8.57;1.50;;;19.10;68.60;;;;;;20722494;28;20548;-60
2021/09/23 22:01:11;;;;;;;3.33;1.20;;;19.10;68.30;;;;;;20698115;28;20062;-60
2021/09/23 22:11:12;;;;;;;3.73;1.57;;;19.10;68.50;;;;;;20727123;28;20492;-60
2021/09/23 22:21:13;;;;;;;6.72;1.52;;;19.10;68.50;;;;;;20699924;28;20027;-59
2021/09/23 22:31:14;;;;;;;5.23;1.83;;;19.10;68.70;;;;;;20703926;28;20033;-59
2021/09/23 22:41:15;;;;;;;9.07;2.58;;;19.10;69.00;;;;;;20687056;28;20501;-60
2021/09/23 22:51:15;;;;;;;13.25;2.80;;;19.10;69.10;;;;;;20691387;28;20037;-59
2021/09/23 23:01:16;;;;;;;8.73;2.50;;;19.10;69.80;;;;;;20701277;28;20038;-59
2021/09/23 23:11:17;;;;;;;10.35;3.03;;;19.10;70.00;;;;;;20703876;28;20038;-59
2021/09/23 23:21:18;;;;;;;6.50;1.20;;;19.10;70.10;;;;;;20705213;28;20069;-60
2021/09/23 23:31:19;;;;;;;6.88;1.90;;;19.10;69.80;;;;;;20695315;28;20551;-59
2021/09/23 23:41:25;;;;;;;6.50;1.90;;;19.00;69.90;;;;;;20713075;28;20065;-60
2021/09/23 23:51:26;;;;;;;4.82;1.92;;;19.10;69.90;;;;;;20712910;28;20038;-60
